sensor_id;sensor_type;location;lat;lon;timestamp;temperature;humidity
18287;DHT22;9269;50.838;12.094;2023-09-12T00:01:03;23.80;30.80
18287;DHT22;9269;50.838;12.094;2023-09-12T00:03:34;23.80;31.00
18287;DHT22;9269;50.838;12.094;2023-09-12T00:10:29;23.80;31.30
18287;DHT22;9269;50.838;12.094;2023-09-12T00:12:58;23.70;30.90
18287;DHT22;9269;50.838;12.094;2023-09-12T00:15:39;23.70;30.80
18287;DHT22;9269;50.838;12.094;2023-09-12T00:18:08;23.60;30.50
18287;DHT22;9269;50.838;12.094;2023-09-12T00:20:37;23.70;31.10
18287;DHT22;9269;50.838;12.094;2023-09-12T00:23:05;23.60;31.90
18287;DHT22;9269;50.838;12.094;2023-09-12T00:25:43;23.60;31.90
18287;DHT22;9269;50.838;12.094;2023-09-12T00:28:16;23.50;32.10
18287;DHT22;9269;50.838;12.094;2023-09-12T00:30:55;23.50;32.30
18287;DHT22;9269;50.838;12.094;2023-09-12T00:33:28;23.40;32.10
18287;DHT22;9269;50.838;12.094;2023-09-12T00:36:12;23.40;32.10
18287;DHT22;9269;50.838;12.094;2023-09-12T00:38:46;23.50;31.90
18287;DHT22;9269;50.838;12.094;2023-09-12T00:41:16;23.30;32.20
18287;DHT22;9269;50.838;12.094;2023-09-12T00:43:45;23.30;32.20
18287;DHT22;9269;50.838;12.094;2023-09-12T00:46:18;23.30;32.30
18287;DHT22;9269;50.838;12.094;2023-09-12T00:48:47;23.30;32.70
18287;DHT22;9269;50.838;12.094;2023-09-12T00:51:18;23.30;32.70
18287;DHT22;9269;50.838;12.094;2023-09-12T00:53:49;23.20;32.80
18287;DHT22;9269;50.838;12.094;2023-09-12T00:56:24;23.30;32.50
18287;DHT22;9269;50.838;12.094;2023-09-12T00:58:54;23.30;32.80
18287;DHT22;9269;50.838;12.094;2023-09-12T01:01:22;23.20;33.20
18287;DHT22;9269;50.838;12.094;2023-09-12T01:03:52;23.30;33.40
18287;DHT22;9269;50.838;12.094;2023-09-12T01:06:23;23.20;33.20
18287;DHT22;9269;50.838;12.094;2023-09-12T01:08:53;23.10;33.60
18287;DHT22;9269;50.838;12.094;2023-09-12T01:11:23;23.20;33.60
18287;DHT22;9269;50.838;12.094;2023-09-12T01:13:52;23.20;33.70
18287;DHT22;9269;50.838;12.094;2023-09-12T01:16:21;23.10;33.70
18287;DHT22;9269;50.838;12.094;2023-09-12T01:18:50;23.20;33.90
18287;DHT22;9269;50.838;12.094;2023-09-12T01:21:38;23.20;33.90
18287;DHT22;9269;50.838;12.094;2023-09-12T01:24:38;23.20;33.60
18287;DHT22;9269;50.838;12.094;2023-09-12T01:27:19;23.10;33.60
18287;DHT22;9269;50.838;12.094;2023-09-12T01:29:56;23.10;33.50
18287;DHT22;9269;50.838;12.094;2023-09-12T01:32:24;23.00;33.60
18287;DHT22;9269;50.838;12.094;2023-09-12T01:34:53;22.90;33.50
18287;DHT22;9269;50.838;12.094;2023-09-12T01:37:22;22.90;33.70
18287;DHT22;9269;50.838;12.094;2023-09-12T01:39:50;22.90;33.70
18287;DHT22;9269;50.838;12.094;2023-09-12T01:42:52;22.90;33.90
18287;DHT22;9269;50.838;12.094;2023-09-12T01:45:21;22.90;33.70
18287;DHT22;9269;50.838;12.094;2023-09-12T03:37:54;21.90;36.10
18287;DHT22;9269;50.838;12.094;2023-09-12T03:40:44;21.90;36.20
18287;DHT22;9269;50.838;12.094;2023-09-12T03:51:11;22.00;36.30
18287;DHT22;9269;50.838;12.094;2023-09-12T03:53:57;21.90;36.30
18287;DHT22;9269;50.838;12.094;2023-09-12T03:56:54;22.00;36.50
18287;DHT22;9269;50.838;12.094;2023-09-12T04:07:06;22.00;36.30
18287;DHT22;9269;50.838;12.094;2023-09-12T04:11:13;22.00;36.40
18287;DHT22;9269;50.838;12.094;2023-09-12T04:13:43;21.90;36.70
18287;DHT22;9269;50.838;12.094;2023-09-12T04:21:04;21.80;37.00
18287;DHT22;9269;50.838;12.094;2023-09-12T04:23:51;21.80;36.60
18287;DHT22;9269;50.838;12.094;2023-09-12T04:26:23;21.70;36.60
18287;DHT22;9269;50.838;12.094;2023-09-12T04:32:29;21.80;36.80
18287;DHT22;9269;50.838;12.094;2023-09-12T04:35:05;21.70;36.60
18287;DHT22;9269;50.838;12.094;2023-09-12T04:37:59;21.70;36.90
18287;DHT22;9269;50.838;12.094;2023-09-12T04:40:32;21.70;36.80
18287;DHT22;9269;50.838;12.094;2023-09-12T04:43:03;21.70;37.10
18287;DHT22;9269;50.838;12.094;2023-09-12T04:46:19;21.70;37.10
18287;DHT22;9269;50.838;12.094;2023-09-12T04:56:14;21.60;37.10
18287;DHT22;9269;50.838;12.094;2023-09-12T05:06:55;21.70;37.00
18287;DHT22;9269;50.838;12.094;2023-09-12T05:21:14;21.60;37.40
18287;DHT22;9269;50.838;12.094;2023-09-12T05:28:00;21.70;37.50
18287;DHT22;9269;50.838;12.094;2023-09-12T05:31:05;21.70;37.40
18287;DHT22;9269;50.838;12.094;2023-09-12T05:33:46;21.80;37.40
18287;DHT22;9269;50.838;12.094;2023-09-12T05:37:19;21.90;37.40
18287;DHT22;9269;50.838;12.094;2023-09-12T05:48:39;22.00;36.70
18287;DHT22;9269;50.838;12.094;2023-09-12T05:55:49;22.10;37.30
18287;DHT22;9269;50.838;12.094;2023-09-12T06:50:57;23.80;34.30
18287;DHT22;9269;50.838;12.094;2023-09-12T06:53:50;23.90;34.40
18287;DHT22;9269;50.838;12.094;2023-09-12T06:56:35;23.90;34.40
18287;DHT22;9269;50.838;12.094;2023-09-12T07:00:09;23.90;34.80
18287;DHT22;9269;50.838;12.094;2023-09-12T08:10:01;26.40;32.70
18287;DHT22;9269;50.838;12.094;2023-09-12T08:12:59;26.70;32.30
18287;DHT22;9269;50.838;12.094;2023-09-12T11:11:26;33.30;22.10
18287;DHT22;9269;50.838;12.094;2023-09-12T11:14:05;33.30;22.20
18287;DHT22;9269;50.838;12.094;2023-09-12T11:16:39;33.20;22.30
18287;DHT22;9269;50.838;12.094;2023-09-12T11:19:16;33.30;21.70
18287;DHT22;9269;50.838;12.094;2023-09-12T11:21:47;33.30;21.90
18287;DHT22;9269;50.838;12.094;2023-09-12T11:24:17;33.40;22.00
18287;DHT22;9269;50.838;12.094;2023-09-12T11:26:55;33.50;22.20
18287;DHT22;9269;50.838;12.094;2023-09-12T11:29:27;33.50;21.60
18287;DHT22;9269;50.838;12.094;2023-09-12T11:31:59;33.40;21.70
18287;DHT22;9269;50.838;12.094;2023-09-12T11:34:37;33.40;21.40
18287;DHT22;9269;50.838;12.094;2023-09-12T11:37:07;33.50;21.50
18287;DHT22;9269;50.838;12.094;2023-09-12T11:39:38;33.70;21.60
18287;DHT22;9269;50.838;12.094;2023-09-12T11:42:11;33.60;21.70
18287;DHT22;9269;50.838;12.094;2023-09-12T11:44:41;33.70;21.40
18287;DHT22;9269;50.838;12.094;2023-09-12T11:47:12;33.80;21.00
18287;DHT22;9269;50.838;12.094;2023-09-12T11:49:41;33.80;21.00
18287;DHT22;9269;50.838;12.094;2023-09-12T11:52:11;33.80;20.70
18287;DHT22;9269;50.838;12.094;2023-09-12T11:54:44;33.90;20.70
18287;DHT22;9269;50.838;12.094;2023-09-12T11:57:15;33.90;20.90
18287;DHT22;9269;50.838;12.094;2023-09-12T11:59:44;33.90;20.70
18287;DHT22;9269;50.838;12.094;2023-09-12T12:02:16;33.90;20.80
18287;DHT22;9269;50.838;12.094;2023-09-12T12:04:46;33.80;20.80
18287;DHT22;9269;50.838;12.094;2023-09-12T12:07:15;33.60;21.20
18287;DHT22;9269;50.838;12.094;2023-09-12T12:09:44;33.50;21.40
18287;DHT22;9269;50.838;12.094;2023-09-12T12:12:14;33.40;21.50
18287;DHT22;9269;50.838;12.094;2023-09-12T12:14:43;33.70;21.60
18287;DHT22;9269;50.838;12.094;2023-09-12T12:17:12;33.80;21.10
18287;DHT22;9269;50.838;12.094;2023-09-12T12:19:45;34.00;20.80
18287;DHT22;9269;50.838;12.094;2023-09-12T12:22:14;34.10;21.00
18287;DHT22;9269;50.838;12.094;2023-09-12T12:24:47;34.20;20.50
18287;DHT22;9269;50.838;12.094;2023-09-12T12:27:17;34.40;21.10
18287;DHT22;9269;50.838;12.094;2023-09-12T12:29:46;34.50;20.60
18287;DHT22;9269;50.838;12.094;2023-09-12T12:32:31;34.40;20.60
18287;DHT22;9269;50.838;12.094;2023-09-12T12:35:00;34.40;20.00
18287;DHT22;9269;50.838;12.094;2023-09-12T12:38:12;34.40;20.30
18287;DHT22;9269;50.838;12.094;2023-09-12T12:40:45;34.50;20.50
18287;DHT22;9269;50.838;12.094;2023-09-12T12:43:18;34.50;19.90
18287;DHT22;9269;50.838;12.094;2023-09-12T12:45:54;34.50;19.80
18287;DHT22;9269;50.838;12.094;2023-09-12T12:52:24;34.60;19.90
18287;DHT22;9269;50.838;12.094;2023-09-12T12:54:54;34.60;20.30
18287;DHT22;9269;50.838;12.094;2023-09-12T12:57:31;34.60;20.90
18287;DHT22;9269;50.838;12.094;2023-09-12T13:00:04;34.60;19.80
18287;DHT22;9269;50.838;12.094;2023-09-12T13:02:53;34.50;19.90
18287;DHT22;9269;50.838;12.094;2023-09-12T13:05:25;34.40;20.40
18287;DHT22;9269;50.838;12.094;2023-09-12T13:24:32;34.20;20.30
18287;DHT22;9269;50.838;12.094;2023-09-12T13:27:03;34.10;20.50
18287;DHT22;9269;50.838;12.094;2023-09-12T13:29:31;34.10;20.90
18287;DHT22;9269;50.838;12.094;2023-09-12T13:32:01;34.10;21.00
18287;DHT22;9269;50.838;12.094;2023-09-12T13:34:30;34.00;21.10
18287;DHT22;9269;50.838;12.094;2023-09-12T13:37:01;34.00;21.00
18287;DHT22;9269;50.838;12.094;2023-09-12T13:39:40;34.00;21.30
18287;DHT22;9269;50.838;12.094;2023-09-12T13:42:10;33.90;21.50
18287;DHT22;9269;50.838;12.094;2023-09-12T13:44:41;34.00;21.40
18287;DHT22;9269;50.838;12.094;2023-09-12T13:47:30;34.00;21.00
18287;DHT22;9269;50.838;12.094;2023-09-12T13:50:00;34.00;21.50
18287;DHT22;9269;50.838;12.094;2023-09-12T13:52:29;33.90;21.60
18287;DHT22;9269;50.838;12.094;2023-09-12T13:55:04;33.90;21.50
18287;DHT22;9269;50.838;12.094;2023-09-12T13:57:37;33.80;21.20
18287;DHT22;9269;50.838;12.094;2023-09-12T14:00:18;33.80;21.20
18287;DHT22;9269;50.838;12.094;2023-09-12T14:03:03;33.90;21.00
18287;DHT22;9269;50.838;12.094;2023-09-12T14:05:32;33.90;20.60
18287;DHT22;9269;50.838;12.094;2023-09-12T14:08:03;33.90;21.00
18287;DHT22;9269;50.838;12.094;2023-09-12T14:10:33;33.80;20.60
18287;DHT22;9269;50.838;12.094;2023-09-12T14:13:22;33.80;20.50
18287;DHT22;9269;50.838;12.094;2023-09-12T14:15:51;33.60;20.70
18287;DHT22;9269;50.838;12.094;2023-09-12T14:18:22;33.60;21.10
18287;DHT22;9269;50.838;12.094;2023-09-12T14:20:51;33.50;20.90
18287;DHT22;9269;50.838;12.094;2023-09-12T14:23:20;33.40;21.30
18287;DHT22;9269;50.838;12.094;2023-09-12T14:25:53;33.50;21.20
18287;DHT22;9269;50.838;12.094;2023-09-12T14:28:25;33.40;21.20
18287;DHT22;9269;50.838;12.094;2023-09-12T14:30:55;33.50;21.00
18287;DHT22;9269;50.838;12.094;2023-09-12T14:33:24;33.60;20.90
18287;DHT22;9269;50.838;12.094;2023-09-12T14:35:53;33.60;20.90
18287;DHT22;9269;50.838;12.094;2023-09-12T14:38:22;33.70;21.10
18287;DHT22;9269;50.838;12.094;2023-09-12T14:40:54;33.60;20.60
18287;DHT22;9269;50.838;12.094;2023-09-12T14:43:23;33.60;20.70
18287;DHT22;9269;50.838;12.094;2023-09-12T14:45:55;33.70;20.10
18287;DHT22;9269;50.838;12.094;2023-09-12T14:48:24;33.60;20.00
18287;DHT22;9269;50.838;12.094;2023-09-12T14:50:53;33.60;19.90
18287;DHT22;9269;50.838;12.094;2023-09-12T14:53:22;33.50;19.90
18287;DHT22;9269;50.838;12.094;2023-09-12T14:55:56;33.40;20.40
18287;DHT22;9269;50.838;12.094;2023-09-12T14:58:27;33.40;20.60
18287;DHT22;9269;50.838;12.094;2023-09-12T15:00:57;33.40;20.10
18287;DHT22;9269;50.838;12.094;2023-09-12T15:03:32;33.40;20.00
18287;DHT22;9269;50.838;12.094;2023-09-12T15:06:05;33.30;20.10
18287;DHT22;9269;50.838;12.094;2023-09-12T15:08:34;33.30;20.20
18287;DHT22;9269;50.838;12.094;2023-09-12T15:11:05;33.20;20.10
18287;DHT22;9269;50.838;12.094;2023-09-12T15:13:42;33.30;19.70
18287;DHT22;9269;50.838;12.094;2023-09-12T15:16:14;33.30;20.10
18287;DHT22;9269;50.838;12.094;2023-09-12T15:18:43;33.20;20.20
18287;DHT22;9269;50.838;12.094;2023-09-12T15:21:12;33.20;20.30
18287;DHT22;9269;50.838;12.094;2023-09-12T15:23:42;33.20;20.20
18287;DHT22;9269;50.838;12.094;2023-09-12T15:26:12;33.10;20.50
18287;DHT22;9269;50.838;12.094;2023-09-12T15:28:44;33.10;20.90
18287;DHT22;9269;50.838;12.094;2023-09-12T15:31:12;33.00;20.90
18287;DHT22;9269;50.838;12.094;2023-09-12T15:33:41;32.90;20.90
18287;DHT22;9269;50.838;12.094;2023-09-12T15:36:11;32.80;21.20
18287;DHT22;9269;50.838;12.094;2023-09-12T15:38:40;32.80;21.30
18287;DHT22;9269;50.838;12.094;2023-09-12T15:41:12;32.60;21.30
18287;DHT22;9269;50.838;12.094;2023-09-12T15:43:40;32.70;21.30
18287;DHT22;9269;50.838;12.094;2023-09-12T15:46:15;32.70;21.40
18287;DHT22;9269;50.838;12.094;2023-09-12T15:49:01;32.70;21.50
18287;DHT22;9269;50.838;12.094;2023-09-12T15:51:31;32.70;21.40
18287;DHT22;9269;50.838;12.094;2023-09-12T15:54:05;32.50;21.20
18287;DHT22;9269;50.838;12.094;2023-09-12T15:56:38;32.50;20.90
18287;DHT22;9269;50.838;12.094;2023-09-12T15:59:07;32.40;21.40
18287;DHT22;9269;50.838;12.094;2023-09-12T16:01:37;32.40;21.20
18287;DHT22;9269;50.838;12.094;2023-09-12T16:04:07;32.20;21.50
18287;DHT22;9269;50.838;12.094;2023-09-12T16:06:38;32.20;21.80
18287;DHT22;9269;50.838;12.094;2023-09-12T16:09:07;32.10;22.00
18287;DHT22;9269;50.838;12.094;2023-09-12T16:11:38;32.10;22.10
18287;DHT22;9269;50.838;12.094;2023-09-12T16:14:06;31.90;22.40
18287;DHT22;9269;50.838;12.094;2023-09-12T16:16:37;31.90;22.50
18287;DHT22;9269;50.838;12.094;2023-09-12T16:19:06;31.80;22.80
18287;DHT22;9269;50.838;12.094;2023-09-12T16:21:39;31.80;22.90
18287;DHT22;9269;50.838;12.094;2023-09-12T16:24:09;31.70;23.20
18287;DHT22;9269;50.838;12.094;2023-09-12T16:26:40;31.60;23.70
18287;DHT22;9269;50.838;12.094;2023-09-12T16:29:12;31.60;23.60
18287;DHT22;9269;50.838;12.094;2023-09-12T16:31:42;31.50;23.20
18287;DHT22;9269;50.838;12.094;2023-09-12T16:34:12;31.50;23.80
18287;DHT22;9269;50.838;12.094;2023-09-12T16:36:45;31.30;23.70
18287;DHT22;9269;50.838;12.094;2023-09-12T16:39:14;31.30;23.60
18287;DHT22;9269;50.838;12.094;2023-09-12T16:41:45;31.30;24.20
18287;DHT22;9269;50.838;12.094;2023-09-12T16:44:14;31.20;24.10
18287;DHT22;9269;50.838;12.094;2023-09-12T16:46:46;31.10;24.50
18287;DHT22;9269;50.838;12.094;2023-09-12T16:49:16;31.00;24.30
18287;DHT22;9269;50.838;12.094;2023-09-12T16:51:45;31.00;24.40
18287;DHT22;9269;50.838;12.094;2023-09-12T16:54:14;30.90;24.60
18287;DHT22;9269;50.838;12.094;2023-09-12T16:56:44;31.00;24.70
18287;DHT22;9269;50.838;12.094;2023-09-12T16:59:13;30.80;24.70
18287;DHT22;9269;50.838;12.094;2023-09-12T17:01:42;30.80;24.80
18287;DHT22;9269;50.838;12.094;2023-09-12T17:04:11;30.70;25.00
18287;DHT22;9269;50.838;12.094;2023-09-12T17:06:41;30.60;25.20
18287;DHT22;9269;50.838;12.094;2023-09-12T17:09:12;30.50;25.00
18287;DHT22;9269;50.838;12.094;2023-09-12T17:11:40;30.40;25.40
18287;DHT22;9269;50.838;12.094;2023-09-12T17:14:11;30.50;25.40
18287;DHT22;9269;50.838;12.094;2023-09-12T17:16:41;30.40;25.60
18287;DHT22;9269;50.838;12.094;2023-09-12T17:19:09;30.30;25.80
18287;DHT22;9269;50.838;12.094;2023-09-12T17:21:38;30.20;25.70
18287;DHT22;9269;50.838;12.094;2023-09-12T17:24:07;30.00;25.80
18287;DHT22;9269;50.838;12.094;2023-09-12T17:26:38;30.00;25.70
18287;DHT22;9269;50.838;12.094;2023-09-12T17:29:07;30.00;26.00
18287;DHT22;9269;50.838;12.094;2023-09-12T17:31:39;29.90;26.40
18287;DHT22;9269;50.838;12.094;2023-09-12T17:34:07;29.80;26.30
18287;DHT22;9269;50.838;12.094;2023-09-12T17:36:38;29.70;26.20
18287;DHT22;9269;50.838;12.094;2023-09-12T17:39:06;29.60;26.90
18287;DHT22;9269;50.838;12.094;2023-09-12T17:41:37;29.50;27.20
18287;DHT22;9269;50.838;12.094;2023-09-12T17:44:05;29.50;27.10
18287;DHT22;9269;50.838;12.094;2023-09-12T17:46:34;29.30;27.50
18287;DHT22;9269;50.838;12.094;2023-09-12T17:49:04;29.30;27.60
18287;DHT22;9269;50.838;12.094;2023-09-12T17:51:33;29.30;27.40
18287;DHT22;9269;50.838;12.094;2023-09-12T17:54:04;29.20;27.80
18287;DHT22;9269;50.838;12.094;2023-09-12T17:56:33;29.10;28.30
18287;DHT22;9269;50.838;12.094;2023-09-12T17:59:02;29.10;28.60
18287;DHT22;9269;50.838;12.094;2023-09-12T18:01:31;29.00;28.80
18287;DHT22;9269;50.838;12.094;2023-09-12T18:04:04;28.90;29.10
18287;DHT22;9269;50.838;12.094;2023-09-12T18:06:33;29.00;29.40
18287;DHT22;9269;50.838;12.094;2023-09-12T18:09:02;28.80;29.20
18287;DHT22;9269;50.838;12.094;2023-09-12T18:11:33;28.80;29.30
18287;DHT22;9269;50.838;12.094;2023-09-12T18:14:02;28.80;29.00
18287;DHT22;9269;50.838;12.094;2023-09-12T18:16:32;28.70;29.20
18287;DHT22;9269;50.838;12.094;2023-09-12T18:19:03;28.70;29.50
18287;DHT22;9269;50.838;12.094;2023-09-12T18:21:32;28.70;29.80
18287;DHT22;9269;50.838;12.094;2023-09-12T18:24:03;28.70;30.10
18287;DHT22;9269;50.838;12.094;2023-09-12T18:26:32;28.50;29.90
18287;DHT22;9269;50.838;12.094;2023-09-12T18:29:01;28.60;29.90
18287;DHT22;9269;50.838;12.094;2023-09-12T18:31:30;28.50;30.20
18287;DHT22;9269;50.838;12.094;2023-09-12T18:33:58;28.50;30.70
18287;DHT22;9269;50.838;12.094;2023-09-12T18:36:30;28.40;30.60
18287;DHT22;9269;50.838;12.094;2023-09-12T18:38:58;28.40;30.80
18287;DHT22;9269;50.838;12.094;2023-09-12T18:41:27;28.40;30.80
18287;DHT22;9269;50.838;12.094;2023-09-12T18:43:56;28.30;30.60
18287;DHT22;9269;50.838;12.094;2023-09-12T18:46:25;28.30;31.00
18287;DHT22;9269;50.838;12.094;2023-09-12T18:48:54;28.30;31.10
18287;DHT22;9269;50.838;12.094;2023-09-12T18:51:23;28.20;31.00
18287;DHT22;9269;50.838;12.094;2023-09-12T18:53:52;28.20;31.10
18287;DHT22;9269;50.838;12.094;2023-09-12T18:56:21;28.20;31.20
18287;DHT22;9269;50.838;12.094;2023-09-12T18:58:50;28.10;30.90
18287;DHT22;9269;50.838;12.094;2023-09-12T19:01:18;28.20;31.70
18287;DHT22;9269;50.838;12.094;2023-09-12T19:03:47;28.10;31.30
18287;DHT22;9269;50.838;12.094;2023-09-12T19:06:17;28.00;31.70
18287;DHT22;9269;50.838;12.094;2023-09-12T19:08:45;28.00;31.80
18287;DHT22;9269;50.838;12.094;2023-09-12T19:11:15;27.90;31.70
18287;DHT22;9269;50.838;12.094;2023-09-12T19:13:46;27.90;31.70
18287;DHT22;9269;50.838;12.094;2023-09-12T19:16:15;27.90;32.00
18287;DHT22;9269;50.838;12.094;2023-09-12T19:18:43;27.90;31.70
18287;DHT22;9269;50.838;12.094;2023-09-12T19:21:14;27.90;31.90
18287;DHT22;9269;50.838;12.094;2023-09-12T19:23:42;27.80;32.10
18287;DHT22;9269;50.838;12.094;2023-09-12T19:26:12;27.80;32.00
18287;DHT22;9269;50.838;12.094;2023-09-12T19:28:42;27.80;32.40
18287;DHT22;9269;50.838;12.094;2023-09-12T19:31:10;27.80;32.60
18287;DHT22;9269;50.838;12.094;2023-09-12T19:33:39;27.70;32.30
18287;DHT22;9269;50.838;12.094;2023-09-12T19:36:14;27.70;32.20
18287;DHT22;9269;50.838;12.094;2023-09-12T19:38:44;27.70;31.80
18287;DHT22;9269;50.838;12.094;2023-09-12T19:41:13;27.60;32.30
18287;DHT22;9269;50.838;12.094;2023-09-12T19:43:44;27.60;31.80
18287;DHT22;9269;50.838;12.094;2023-09-12T19:46:13;27.60;32.10
18287;DHT22;9269;50.838;12.094;2023-09-12T19:48:41;27.50;31.60
18287;DHT22;9269;50.838;12.094;2023-09-12T19:51:10;27.40;31.80
18287;DHT22;9269;50.838;12.094;2023-09-12T19:53:40;27.30;32.50
18287;DHT22;9269;50.838;12.094;2023-09-12T19:56:09;27.40;33.00
18287;DHT22;9269;50.838;12.094;2023-09-12T19:58:38;27.40;32.80
18287;DHT22;9269;50.838;12.094;2023-09-12T20:01:08;27.30;33.10
18287;DHT22;9269;50.838;12.094;2023-09-12T20:03:37;27.30;33.40
18287;DHT22;9269;50.838;12.094;2023-09-12T20:06:06;27.30;33.20
18287;DHT22;9269;50.838;12.094;2023-09-12T20:08:35;27.20;33.70
18287;DHT22;9269;50.838;12.094;2023-09-12T20:11:13;27.20;33.80
18287;DHT22;9269;50.838;12.094;2023-09-12T20:13:41;27.20;33.40
18287;DHT22;9269;50.838;12.094;2023-09-12T20:16:14;27.10;33.70
18287;DHT22;9269;50.838;12.094;2023-09-12T20:18:44;27.20;33.60
18287;DHT22;9269;50.838;12.094;2023-09-12T20:21:12;27.10;33.80
18287;DHT22;9269;50.838;12.094;2023-09-12T20:23:41;27.10;33.70
18287;DHT22;9269;50.838;12.094;2023-09-12T20:26:10;27.10;33.50
18287;DHT22;9269;50.838;12.094;2023-09-12T20:28:51;27.10;33.80
18287;DHT22;9269;50.838;12.094;2023-09-12T20:31:22;27.00;34.30
18287;DHT22;9269;50.838;12.094;2023-09-12T20:33:51;27.00;34.20
18287;DHT22;9269;50.838;12.094;2023-09-12T20:36:22;26.90;33.80
18287;DHT22;9269;50.838;12.094;2023-09-12T20:39:22;26.90;33.60
18287;DHT22;9269;50.838;12.094;2023-09-12T20:41:55;26.90;33.70
18287;DHT22;9269;50.838;12.094;2023-09-12T20:44:25;26.90;34.20
18287;DHT22;9269;50.838;12.094;2023-09-12T20:46:57;26.80;34.30
18287;DHT22;9269;50.838;12.094;2023-09-12T20:49:29;26.80;34.60
18287;DHT22;9269;50.838;12.094;2023-09-12T20:52:03;26.80;34.80
18287;DHT22;9269;50.838;12.094;2023-09-12T20:54:32;26.60;35.30
18287;DHT22;9269;50.838;12.094;2023-09-12T20:57:00;26.60;34.90
18287;DHT22;9269;50.838;12.094;2023-09-12T20:59:31;26.60;35.00
18287;DHT22;9269;50.838;12.094;2023-09-12T21:02:02;26.60;34.60
18287;DHT22;9269;50.838;12.094;2023-09-12T21:04:34;26.60;34.60
18287;DHT22;9269;50.838;12.094;2023-09-12T21:07:04;26.50;34.90
18287;DHT22;9269;50.838;12.094;2023-09-12T21:09:52;26.50;34.70
18287;DHT22;9269;50.838;12.094;2023-09-12T21:12:21;26.50;34.30
18287;DHT22;9269;50.838;12.094;2023-09-12T21:14:52;26.60;34.40
18287;DHT22;9269;50.838;12.094;2023-09-12T21:17:25;26.50;34.30
18287;DHT22;9269;50.838;12.094;2023-09-12T21:19:53;26.40;34.30
18287;DHT22;9269;50.838;12.094;2023-09-12T21:22:24;26.60;34.40
18287;DHT22;9269;50.838;12.094;2023-09-12T21:24:52;26.50;34.30
18287;DHT22;9269;50.838;12.094;2023-09-12T21:27:21;26.50;34.90
18287;DHT22;9269;50.838;12.094;2023-09-12T21:29:50;26.50;34.80
18287;DHT22;9269;50.838;12.094;2023-09-12T21:32:18;26.50;34.50
18287;DHT22;9269;50.838;12.094;2023-09-12T21:34:48;26.60;34.80
18287;DHT22;9269;50.838;12.094;2023-09-12T21:37:17;26.60;35.20
18287;DHT22;9269;50.838;12.094;2023-09-12T21:39:46;26.50;35.30
18287;DHT22;9269;50.838;12.094;2023-09-12T21:42:15;26.40;35.10
18287;DHT22;9269;50.838;12.094;2023-09-12T21:44:46;26.40;34.90
18287;DHT22;9269;50.838;12.094;2023-09-12T21:47:15;26.30;36.00
18287;DHT22;9269;50.838;12.094;2023-09-12T21:49:44;26.30;36.50
18287;DHT22;9269;50.838;12.094;2023-09-12T21:52:14;26.30;36.90
18287;DHT22;9269;50.838;12.094;2023-09-12T21:54:42;26.40;35.80
18287;DHT22;9269;50.838;12.094;2023-09-12T21:57:10;26.20;36.90
18287;DHT22;9269;50.838;12.094;2023-09-12T21:59:40;26.30;36.60
18287;DHT22;9269;50.838;12.094;2023-09-12T22:02:09;26.30;36.90
18287;DHT22;9269;50.838;12.094;2023-09-12T22:04:38;26.30;36.70
18287;DHT22;9269;50.838;12.094;2023-09-12T22:07:08;26.20;36.70
18287;DHT22;9269;50.838;12.094;2023-09-12T22:09:38;26.20;36.20
18287;DHT22;9269;50.838;12.094;2023-09-12T22:12:07;26.20;36.70
18287;DHT22;9269;50.838;12.094;2023-09-12T22:14:37;26.20;36.30
18287;DHT22;9269;50.838;12.094;2023-09-12T22:17:05;26.20;36.90
18287;DHT22;9269;50.838;12.094;2023-09-12T22:19:34;26.20;36.90
18287;DHT22;9269;50.838;12.094;2023-09-12T22:22:03;26.10;37.10
18287;DHT22;9269;50.838;12.094;2023-09-12T22:24:32;26.20;36.50
18287;DHT22;9269;50.838;12.094;2023-09-12T22:27:07;26.10;36.50
18287;DHT22;9269;50.838;12.094;2023-09-12T22:29:36;26.10;36.70
18287;DHT22;9269;50.838;12.094;2023-09-12T22:32:05;26.10;36.60
18287;DHT22;9269;50.838;12.094;2023-09-12T22:34:54;25.90;37.00
18287;DHT22;9269;50.838;12.094;2023-09-12T22:37:42;26.00;36.50
18287;DHT22;9269;50.838;12.094;2023-09-12T22:40:11;26.00;37.00
18287;DHT22;9269;50.838;12.094;2023-09-12T22:43:10;26.00;37.40
18287;DHT22;9269;50.838;12.094;2023-09-12T22:45:46;26.00;37.20
18287;DHT22;9269;50.838;12.094;2023-09-12T22:48:15;25.90;37.40
18287;DHT22;9269;50.838;12.094;2023-09-12T22:50:46;26.00;37.20
18287;DHT22;9269;50.838;12.094;2023-09-12T22:53:14;25.90;37.40
18287;DHT22;9269;50.838;12.094;2023-09-12T22:55:59;26.00;37.60
18287;DHT22;9269;50.838;12.094;2023-09-12T22:58:49;25.90;37.50
18287;DHT22;9269;50.838;12.094;2023-09-12T23:01:18;25.90;36.70
18287;DHT22;9269;50.838;12.094;2023-09-12T23:03:51;25.90;37.20
18287;DHT22;9269;50.838;12.094;2023-09-12T23:06:20;25.90;37.70
18287;DHT22;9269;50.838;12.094;2023-09-12T23:08:49;25.90;38.10
18287;DHT22;9269;50.838;12.094;2023-09-12T23:11:22;26.00;38.50
18287;DHT22;9269;50.838;12.094;2023-09-12T23:13:58;25.90;38.20
18287;DHT22;9269;50.838;12.094;2023-09-12T23:16:27;25.90;38.40
18287;DHT22;9269;50.838;12.094;2023-09-12T23:18:56;25.90;38.70
18287;DHT22;9269;50.838;12.094;2023-09-12T23:21:25;25.80;38.90
18287;DHT22;9269;50.838;12.094;2023-09-12T23:23:53;25.60;39.20
18287;DHT22;9269;50.838;12.094;2023-09-12T23:26:28;25.50;39.60
18287;DHT22;9269;50.838;12.094;2023-09-12T23:29:06;25.60;39.30
18287;DHT22;9269;50.838;12.094;2023-09-12T23:31:34;25.60;39.50
18287;DHT22;9269;50.838;12.094;2023-09-12T23:34:03;25.60;39.30
18287;DHT22;9269;50.838;12.094;2023-09-12T23:36:32;25.50;39.30
18287;DHT22;9269;50.838;12.094;2023-09-12T23:39:04;25.50;38.90
18287;DHT22;9269;50.838;12.094;2023-09-12T23:41:32;25.50;39.10
18287;DHT22;9269;50.838;12.094;2023-09-12T23:44:01;25.40;39.30
18287;DHT22;9269;50.838;12.094;2023-09-12T23:46:30;25.40;39.10
18287;DHT22;9269;50.838;12.094;2023-09-12T23:48:59;25.40;39.30
18287;DHT22;9269;50.838;12.094;2023-09-12T23:51:29;25.50;38.90
18287;DHT22;9269;50.838;12.094;2023-09-12T23:53:57;25.50;38.80
18287;DHT22;9269;50.838;12.094;2023-09-12T23:56:26;25.50;38.40
18287;DHT22;9269;50.838;12.094;2023-09-12T23:58:54;25.40;38.80
